sensor_id;sensor_type;location;lat;lon;timestamp;temperature;humidity
22145;DHT22;11238;48.730;11.566;2023-05-07T00:00:21;12.10;99.90
22145;DHT22;11238;48.730;11.566;2023-05-07T00:02:48;12.00;99.90
22145;DHT22;11238;48.730;11.566;2023-05-07T00:05:15;12.00;99.90
22145;DHT22;11238;48.730;11.566;2023-05-07T00:07:41;12.00;99.90
22145;DHT22;11238;48.730;11.566;2023-05-07T00:10:16;12.00;99.90
22145;DHT22;11238;48.730;11.566;2023-05-07T00:12:42;11.90;99.90
22145;DHT22;11238;48.730;11.566;2023-05-07T00:15:08;11.90;99.90
22145;DHT22;11238;48.730;11.566;2023-05-07T00:17:34;11.90;99.90
22145;DHT22;11238;48.730;11.566;2023-05-07T00:20:00;11.90;99.90
22145;DHT22;11238;48.730;11.566;2023-05-07T00:22:26;11.90;99.90
22145;DHT22;11238;48.730;11.566;2023-05-07T00:24:52;11.70;99.90
22145;DHT22;11238;48.730;11.566;2023-05-07T00:27:21;11.50;99.90
22145;DHT22;11238;48.730;11.566;2023-05-07T00:29:47;11.50;99.90
22145;DHT22;11238;48.730;11.566;2023-05-07T00:32:13;11.50;99.90
22145;DHT22;11238;48.730;11.566;2023-05-07T00:34:42;11.50;99.90
22145;DHT22;11238;48.730;11.566;2023-05-07T00:37:08;11.50;99.90
22145;DHT22;11238;48.730;11.566;2023-05-07T00:39:37;11.50;99.90
22145;DHT22;11238;48.730;11.566;2023-05-07T00:42:04;11.50;99.90
22145;DHT22;11238;48.730;11.566;2023-05-07T00:44:30;11.60;99.90
22145;DHT22;11238;48.730;11.566;2023-05-07T00:47:01;11.60;99.90
22145;DHT22;11238;48.730;11.566;2023-05-07T00:49:38;11.60;99.90
22145;DHT22;11238;48.730;11.566;2023-05-07T00:52:07;11.60;99.90
22145;DHT22;11238;48.730;11.566;2023-05-07T00:54:37;11.60;99.90
22145;DHT22;11238;48.730;11.566;2023-05-07T00:57:10;11.70;99.90
22145;DHT22;11238;48.730;11.566;2023-05-07T00:59:37;11.70;99.90
22145;DHT22;11238;48.730;11.566;2023-05-07T01:02:06;11.70;99.90
22145;DHT22;11238;48.730;11.566;2023-05-07T01:04:32;11.60;99.90
22145;DHT22;11238;48.730;11.566;2023-05-07T01:06:59;11.60;99.90
22145;DHT22;11238;48.730;11.566;2023-05-07T01:09:29;11.60;99.90
22145;DHT22;11238;48.730;11.566;2023-05-07T01:11:58;11.60;99.90
22145;DHT22;11238;48.730;11.566;2023-05-07T01:14:28;11.60;99.90
22145;DHT22;11238;48.730;11.566;2023-05-07T01:16:58;11.60;99.90
22145;DHT22;11238;48.730;11.566;2023-05-07T01:19:28;11.60;99.90
22145;DHT22;11238;48.730;11.566;2023-05-07T01:22:01;11.60;99.90
22145;DHT22;11238;48.730;11.566;2023-05-07T01:24:38;11.50;99.90
22145;DHT22;11238;48.730;11.566;2023-05-07T01:27:06;11.40;99.90
22145;DHT22;11238;48.730;11.566;2023-05-07T01:29:33;11.50;99.90
22145;DHT22;11238;48.730;11.566;2023-05-07T01:32:01;11.40;99.90
22145;DHT22;11238;48.730;11.566;2023-05-07T01:34:34;11.40;99.90
22145;DHT22;11238;48.730;11.566;2023-05-07T01:37:02;11.50;99.90
22145;DHT22;11238;48.730;11.566;2023-05-07T01:39:32;11.40;99.90
22145;DHT22;11238;48.730;11.566;2023-05-07T01:42:02;11.40;99.90
22145;DHT22;11238;48.730;11.566;2023-05-07T01:44:28;11.30;99.90
22145;DHT22;11238;48.730;11.566;2023-05-07T01:46:57;11.20;99.90
22145;DHT22;11238;48.730;11.566;2023-05-07T01:49:23;11.20;99.90
22145;DHT22;11238;48.730;11.566;2023-05-07T01:51:55;11.20;99.90
22145;DHT22;11238;48.730;11.566;2023-05-07T01:54:26;11.20;99.90
22145;DHT22;11238;48.730;11.566;2023-05-07T01:56:57;11.20;99.90
22145;DHT22;11238;48.730;11.566;2023-05-07T01:59:23;11.20;99.90
22145;DHT22;11238;48.730;11.566;2023-05-07T02:01:49;11.20;99.90
22145;DHT22;11238;48.730;11.566;2023-05-07T02:04:15;11.20;99.90
22145;DHT22;11238;48.730;11.566;2023-05-07T02:06:43;11.20;99.90
22145;DHT22;11238;48.730;11.566;2023-05-07T02:09:11;11.20;99.90
22145;DHT22;11238;48.730;11.566;2023-05-07T02:11:44;11.20;99.90
22145;DHT22;11238;48.730;11.566;2023-05-07T02:14:13;11.30;99.90
22145;DHT22;11238;48.730;11.566;2023-05-07T02:16:41;11.30;99.90
22145;DHT22;11238;48.730;11.566;2023-05-07T02:19:09;11.20;99.90
22145;DHT22;11238;48.730;11.566;2023-05-07T02:21:38;11.20;99.90
22145;DHT22;11238;48.730;11.566;2023-05-07T02:24:09;11.20;99.90
22145;DHT22;11238;48.730;11.566;2023-05-07T02:26:39;11.10;99.90
22145;DHT22;11238;48.730;11.566;2023-05-07T02:29:11;11.10;99.90
22145;DHT22;11238;48.730;11.566;2023-05-07T02:31:37;11.10;99.90
22145;DHT22;11238;48.730;11.566;2023-05-07T02:34:04;11.00;99.90
22145;DHT22;11238;48.730;11.566;2023-05-07T02:36:30;11.00;99.90
22145;DHT22;11238;48.730;11.566;2023-05-07T02:39:05;11.00;99.90
22145;DHT22;11238;48.730;11.566;2023-05-07T02:41:31;11.00;99.90
22145;DHT22;11238;48.730;11.566;2023-05-07T02:44:00;11.00;99.90
22145;DHT22;11238;48.730;11.566;2023-05-07T02:46:29;11.00;99.90
22145;DHT22;11238;48.730;11.566;2023-05-07T02:49:00;11.00;99.90
22145;DHT22;11238;48.730;11.566;2023-05-07T02:51:26;11.10;99.90
22145;DHT22;11238;48.730;11.566;2023-05-07T02:54:02;11.10;99.90
22145;DHT22;11238;48.730;11.566;2023-05-07T02:56:32;11.10;99.90
22145;DHT22;11238;48.730;11.566;2023-05-07T02:59:00;11.10;99.90
22145;DHT22;11238;48.730;11.566;2023-05-07T03:01:31;11.10;99.90
22145;DHT22;11238;48.730;11.566;2023-05-07T03:04:06;11.10;99.90
22145;DHT22;11238;48.730;11.566;2023-05-07T03:06:32;11.10;99.90
22145;DHT22;11238;48.730;11.566;2023-05-07T03:09:02;11.20;99.90
22145;DHT22;11238;48.730;11.566;2023-05-07T03:11:29;11.20;99.90
22145;DHT22;11238;48.730;11.566;2023-05-07T03:13:58;11.10;99.90
22145;DHT22;11238;48.730;11.566;2023-05-07T03:16:27;11.10;99.90
22145;DHT22;11238;48.730;11.566;2023-05-07T03:18:53;11.10;99.90
22145;DHT22;11238;48.730;11.566;2023-05-07T03:21:19;11.10;99.90
22145;DHT22;11238;48.730;11.566;2023-05-07T03:24:02;11.00;99.90
22145;DHT22;11238;48.730;11.566;2023-05-07T03:26:28;11.00;99.90
22145;DHT22;11238;48.730;11.566;2023-05-07T03:28:54;11.00;99.90
22145;DHT22;11238;48.730;11.566;2023-05-07T03:31:22;11.00;99.90
22145;DHT22;11238;48.730;11.566;2023-05-07T03:33:56;10.90;99.90
22145;DHT22;11238;48.730;11.566;2023-05-07T03:36:23;10.90;99.90
22145;DHT22;11238;48.730;11.566;2023-05-07T03:38:52;10.90;99.90
22145;DHT22;11238;48.730;11.566;2023-05-07T03:41:22;10.90;99.90
22145;DHT22;11238;48.730;11.566;2023-05-07T03:43:48;10.90;99.90
22145;DHT22;11238;48.730;11.566;2023-05-07T03:46:14;10.80;99.90
22145;DHT22;11238;48.730;11.566;2023-05-07T03:48:40;10.80;99.90
22145;DHT22;11238;48.730;11.566;2023-05-07T03:51:09;10.80;99.90
22145;DHT22;11238;48.730;11.566;2023-05-07T03:53:35;10.80;99.90
22145;DHT22;11238;48.730;11.566;2023-05-07T03:56:02;10.80;99.90
22145;DHT22;11238;48.730;11.566;2023-05-07T03:58:31;10.80;99.90
22145;DHT22;11238;48.730;11.566;2023-05-07T04:01:00;10.80;99.90
22145;DHT22;11238;48.730;11.566;2023-05-07T04:03:29;10.80;99.90
22145;DHT22;11238;48.730;11.566;2023-05-07T04:06:00;10.80;99.90
22145;DHT22;11238;48.730;11.566;2023-05-07T04:08:26;10.80;99.90
22145;DHT22;11238;48.730;11.566;2023-05-07T04:10:57;10.70;99.90
22145;DHT22;11238;48.730;11.566;2023-05-07T04:13:26;10.70;99.90
22145;DHT22;11238;48.730;11.566;2023-05-07T04:15:52;10.70;99.90
22145;DHT22;11238;48.730;11.566;2023-05-07T04:18:19;10.70;99.90
22145;DHT22;11238;48.730;11.566;2023-05-07T04:20:50;10.60;99.90
22145;DHT22;11238;48.730;11.566;2023-05-07T04:23:16;10.50;99.90
22145;DHT22;11238;48.730;11.566;2023-05-07T04:25:42;10.50;99.90
22145;DHT22;11238;48.730;11.566;2023-05-07T04:28:17;10.60;99.90
22145;DHT22;11238;48.730;11.566;2023-05-07T04:30:50;10.60;99.90
22145;DHT22;11238;48.730;11.566;2023-05-07T04:33:17;10.50;99.90
22145;DHT22;11238;48.730;11.566;2023-05-07T04:35:44;10.50;99.90
22145;DHT22;11238;48.730;11.566;2023-05-07T04:38:10;10.50;99.90
22145;DHT22;11238;48.730;11.566;2023-05-07T04:40:36;10.50;99.90
22145;DHT22;11238;48.730;11.566;2023-05-07T04:43:06;10.50;99.90
22145;DHT22;11238;48.730;11.566;2023-05-07T04:45:39;10.60;99.90
22145;DHT22;11238;48.730;11.566;2023-05-07T04:48:09;10.60;99.90
22145;DHT22;11238;48.730;11.566;2023-05-07T04:50:37;10.60;99.90
22145;DHT22;11238;48.730;11.566;2023-05-07T04:53:20;10.50;99.90
22145;DHT22;11238;48.730;11.566;2023-05-07T04:55:47;10.50;99.90
22145;DHT22;11238;48.730;11.566;2023-05-07T04:58:13;10.50;99.90
22145;DHT22;11238;48.730;11.566;2023-05-07T05:00:43;10.60;99.90
22145;DHT22;11238;48.730;11.566;2023-05-07T05:03:12;10.60;99.90
22145;DHT22;11238;48.730;11.566;2023-05-07T05:05:38;10.70;99.90
22145;DHT22;11238;48.730;11.566;2023-05-07T05:08:05;10.60;99.90
22145;DHT22;11238;48.730;11.566;2023-05-07T05:10:39;10.70;99.90
22145;DHT22;11238;48.730;11.566;2023-05-07T05:13:10;10.70;99.90
22145;DHT22;11238;48.730;11.566;2023-05-07T05:15:44;10.80;99.90
22145;DHT22;11238;48.730;11.566;2023-05-07T05:18:11;10.90;99.90
22145;DHT22;11238;48.730;11.566;2023-05-07T05:20:39;10.90;99.90
22145;DHT22;11238;48.730;11.566;2023-05-07T05:23:04;11.00;99.90
22145;DHT22;11238;48.730;11.566;2023-05-07T05:25:34;11.00;99.90
22145;DHT22;11238;48.730;11.566;2023-05-07T05:28:03;11.00;99.90
22145;DHT22;11238;48.730;11.566;2023-05-07T05:30:33;11.10;99.90
22145;DHT22;11238;48.730;11.566;2023-05-07T05:32:58;11.20;99.90
22145;DHT22;11238;48.730;11.566;2023-05-07T05:35:32;11.20;99.90
22145;DHT22;11238;48.730;11.566;2023-05-07T05:38:02;11.30;99.90
22145;DHT22;11238;48.730;11.566;2023-05-07T05:40:29;11.40;99.90
22145;DHT22;11238;48.730;11.566;2023-05-07T05:42:55;11.50;99.90
22145;DHT22;11238;48.730;11.566;2023-05-07T05:45:21;11.70;99.90
22145;DHT22;11238;48.730;11.566;2023-05-07T05:47:48;11.80;99.90
22145;DHT22;11238;48.730;11.566;2023-05-07T05:50:17;11.90;99.90
22145;DHT22;11238;48.730;11.566;2023-05-07T05:52:43;11.90;99.90
22145;DHT22;11238;48.730;11.566;2023-05-07T05:55:09;12.00;99.90
22145;DHT22;11238;48.730;11.566;2023-05-07T05:57:37;12.10;99.90
22145;DHT22;11238;48.730;11.566;2023-05-07T06:00:10;12.20;99.90
22145;DHT22;11238;48.730;11.566;2023-05-07T06:02:46;12.30;99.90
22145;DHT22;11238;48.730;11.566;2023-05-07T06:05:21;12.40;99.90
22145;DHT22;11238;48.730;11.566;2023-05-07T06:07:59;12.50;99.90
22145;DHT22;11238;48.730;11.566;2023-05-07T06:10:44;12.60;99.90
22145;DHT22;11238;48.730;11.566;2023-05-07T06:13:19;12.80;99.90
22145;DHT22;11238;48.730;11.566;2023-05-07T06:16:05;12.90;99.90
22145;DHT22;11238;48.730;11.566;2023-05-07T06:18:31;13.00;99.90
22145;DHT22;11238;48.730;11.566;2023-05-07T06:20:57;13.20;99.90
22145;DHT22;11238;48.730;11.566;2023-05-07T06:23:26;13.30;99.90
22145;DHT22;11238;48.730;11.566;2023-05-07T06:25:52;13.40;99.90
22145;DHT22;11238;48.730;11.566;2023-05-07T06:28:22;13.60;99.90
22145;DHT22;11238;48.730;11.566;2023-05-07T06:30:48;13.70;99.90
22145;DHT22;11238;48.730;11.566;2023-05-07T06:33:16;13.80;99.90
22145;DHT22;11238;48.730;11.566;2023-05-07T06:35:42;13.80;99.90
22145;DHT22;11238;48.730;11.566;2023-05-07T06:38:08;13.90;99.90
22145;DHT22;11238;48.730;11.566;2023-05-07T06:41:06;14.00;99.90
22145;DHT22;11238;48.730;11.566;2023-05-07T06:43:33;14.10;99.90
22145;DHT22;11238;48.730;11.566;2023-05-07T06:46:22;14.10;99.90
22145;DHT22;11238;48.730;11.566;2023-05-07T06:48:48;14.20;99.90
22145;DHT22;11238;48.730;11.566;2023-05-07T06:51:14;14.30;99.90
22145;DHT22;11238;48.730;11.566;2023-05-07T06:53:40;14.40;99.90
22145;DHT22;11238;48.730;11.566;2023-05-07T06:56:09;14.50;99.90
22145;DHT22;11238;48.730;11.566;2023-05-07T06:58:37;14.70;99.90
22145;DHT22;11238;48.730;11.566;2023-05-07T07:01:04;14.80;99.90
22145;DHT22;11238;48.730;11.566;2023-05-07T07:03:31;14.90;99.90
22145;DHT22;11238;48.730;11.566;2023-05-07T07:05:57;15.00;99.90
22145;DHT22;11238;48.730;11.566;2023-05-07T07:08:23;15.10;99.90
22145;DHT22;11238;48.730;11.566;2023-05-07T07:10:51;15.20;99.90
22145;DHT22;11238;48.730;11.566;2023-05-07T07:13:17;15.30;99.90
22145;DHT22;11238;48.730;11.566;2023-05-07T07:15:43;15.40;99.90
22145;DHT22;11238;48.730;11.566;2023-05-07T07:18:09;15.40;99.90
22145;DHT22;11238;48.730;11.566;2023-05-07T07:20:34;15.50;99.90
22145;DHT22;11238;48.730;11.566;2023-05-07T07:23:01;15.50;99.90
22145;DHT22;11238;48.730;11.566;2023-05-07T07:25:30;15.70;99.90
22145;DHT22;11238;48.730;11.566;2023-05-07T07:27:56;15.80;99.90
22145;DHT22;11238;48.730;11.566;2023-05-07T07:30:24;15.90;99.90
22145;DHT22;11238;48.730;11.566;2023-05-07T07:32:53;16.00;99.90
22145;DHT22;11238;48.730;11.566;2023-05-07T07:35:20;16.10;99.90
22145;DHT22;11238;48.730;11.566;2023-05-07T07:37:48;16.30;99.90
22145;DHT22;11238;48.730;11.566;2023-05-07T07:40:16;16.40;99.90
22145;DHT22;11238;48.730;11.566;2023-05-07T07:42:43;16.40;99.90
22145;DHT22;11238;48.730;11.566;2023-05-07T07:45:10;16.60;99.90
22145;DHT22;11238;48.730;11.566;2023-05-07T07:47:40;16.60;99.90
22145;DHT22;11238;48.730;11.566;2023-05-07T07:50:07;16.70;99.90
22145;DHT22;11238;48.730;11.566;2023-05-07T07:52:33;16.80;99.90
22145;DHT22;11238;48.730;11.566;2023-05-07T07:54:59;16.70;99.90
22145;DHT22;11238;48.730;11.566;2023-05-07T07:57:26;16.80;99.90
22145;DHT22;11238;48.730;11.566;2023-05-07T07:59:52;16.90;99.90
22145;DHT22;11238;48.730;11.566;2023-05-07T08:02:18;16.90;99.90
22145;DHT22;11238;48.730;11.566;2023-05-07T08:04:44;17.00;99.90
22145;DHT22;11238;48.730;11.566;2023-05-07T08:07:11;17.10;99.90
22145;DHT22;11238;48.730;11.566;2023-05-07T08:09:40;17.20;99.90
22145;DHT22;11238;48.730;11.566;2023-05-07T08:12:08;17.30;99.90
22145;DHT22;11238;48.730;11.566;2023-05-07T08:14:35;17.40;99.90
22145;DHT22;11238;48.730;11.566;2023-05-07T08:17:03;17.50;99.90
22145;DHT22;11238;48.730;11.566;2023-05-07T08:19:48;17.50;99.90
22145;DHT22;11238;48.730;11.566;2023-05-07T08:22:17;17.70;99.90
22145;DHT22;11238;48.730;11.566;2023-05-07T08:27:31;18.10;99.90
22145;DHT22;11238;48.730;11.566;2023-05-07T08:29:57;18.10;99.90
22145;DHT22;11238;48.730;11.566;2023-05-07T08:32:24;18.30;99.90
22145;DHT22;11238;48.730;11.566;2023-05-07T08:34:50;18.30;99.90
22145;DHT22;11238;48.730;11.566;2023-05-07T08:37:17;18.40;99.90
22145;DHT22;11238;48.730;11.566;2023-05-07T08:39:44;18.50;99.90
22145;DHT22;11238;48.730;11.566;2023-05-07T08:42:17;18.60;99.90
22145;DHT22;11238;48.730;11.566;2023-05-07T08:44:45;18.80;99.90
22145;DHT22;11238;48.730;11.566;2023-05-07T08:47:13;18.80;99.90
22145;DHT22;11238;48.730;11.566;2023-05-07T08:49:40;18.90;99.90
22145;DHT22;11238;48.730;11.566;2023-05-07T08:52:07;19.00;99.90
22145;DHT22;11238;48.730;11.566;2023-05-07T08:54:33;19.10;99.90
22145;DHT22;11238;48.730;11.566;2023-05-07T08:57:01;19.20;99.90
22145;DHT22;11238;48.730;11.566;2023-05-07T08:59:27;19.30;99.90
22145;DHT22;11238;48.730;11.566;2023-05-07T09:01:53;19.40;99.90
22145;DHT22;11238;48.730;11.566;2023-05-07T09:04:19;19.40;99.90
22145;DHT22;11238;48.730;11.566;2023-05-07T09:06:45;19.50;99.90
22145;DHT22;11238;48.730;11.566;2023-05-07T09:09:21;19.60;99.90
22145;DHT22;11238;48.730;11.566;2023-05-07T09:11:56;19.60;99.90
22145;DHT22;11238;48.730;11.566;2023-05-07T09:14:25;19.80;99.90
22145;DHT22;11238;48.730;11.566;2023-05-07T09:16:54;20.00;99.90
22145;DHT22;11238;48.730;11.566;2023-05-07T09:19:25;20.20;99.90
22145;DHT22;11238;48.730;11.566;2023-05-07T09:22:00;20.30;99.90
22145;DHT22;11238;48.730;11.566;2023-05-07T09:24:29;20.50;99.90
22145;DHT22;11238;48.730;11.566;2023-05-07T09:27:00;20.40;99.90
22145;DHT22;11238;48.730;11.566;2023-05-07T09:29:28;20.40;99.90
22145;DHT22;11238;48.730;11.566;2023-05-07T09:32:07;20.50;99.90
22145;DHT22;11238;48.730;11.566;2023-05-07T09:34:34;20.60;99.90
22145;DHT22;11238;48.730;11.566;2023-05-07T09:37:05;20.80;99.90
22145;DHT22;11238;48.730;11.566;2023-05-07T09:39:41;20.90;99.90
22145;DHT22;11238;48.730;11.566;2023-05-07T09:42:08;21.10;99.90
22145;DHT22;11238;48.730;11.566;2023-05-07T09:44:35;21.20;99.90
22145;DHT22;11238;48.730;11.566;2023-05-07T09:47:07;21.40;99.90
22145;DHT22;11238;48.730;11.566;2023-05-07T09:49:40;21.50;99.90
22145;DHT22;11238;48.730;11.566;2023-05-07T09:52:10;21.50;99.90
22145;DHT22;11238;48.730;11.566;2023-05-07T09:54:45;21.50;99.90
22145;DHT22;11238;48.730;11.566;2023-05-07T09:57:13;21.40;99.90
22145;DHT22;11238;48.730;11.566;2023-05-07T09:59:42;21.20;99.90
22145;DHT22;11238;48.730;11.566;2023-05-07T10:02:11;21.30;99.90
22145;DHT22;11238;48.730;11.566;2023-05-07T10:04:46;21.40;99.90
22145;DHT22;11238;48.730;11.566;2023-05-07T10:07:14;21.50;99.90
22145;DHT22;11238;48.730;11.566;2023-05-07T10:09:42;21.50;99.90
22145;DHT22;11238;48.730;11.566;2023-05-07T10:12:18;21.70;99.90
22145;DHT22;11238;48.730;11.566;2023-05-07T10:14:46;21.70;99.90
22145;DHT22;11238;48.730;11.566;2023-05-07T10:17:16;21.60;99.90
22145;DHT22;11238;48.730;11.566;2023-05-07T10:19:44;21.70;99.90
22145;DHT22;11238;48.730;11.566;2023-05-07T10:22:11;21.90;99.90
22145;DHT22;11238;48.730;11.566;2023-05-07T10:24:44;22.00;99.90
22145;DHT22;11238;48.730;11.566;2023-05-07T10:27:16;22.10;99.90
22145;DHT22;11238;48.730;11.566;2023-05-07T10:30:12;22.30;99.90
22145;DHT22;11238;48.730;11.566;2023-05-07T10:32:49;22.30;99.60
22145;DHT22;11238;48.730;11.566;2023-05-07T10:35:26;22.50;99.50
22145;DHT22;11238;48.730;11.566;2023-05-07T10:37:55;22.70;99.50
22145;DHT22;11238;48.730;11.566;2023-05-07T10:40:23;22.80;98.50
22145;DHT22;11238;48.730;11.566;2023-05-07T10:45:21;23.00;97.70
22145;DHT22;11238;48.730;11.566;2023-05-07T10:50:32;23.10;96.20
22145;DHT22;11238;48.730;11.566;2023-05-07T10:55:48;23.30;95.50
22145;DHT22;11238;48.730;11.566;2023-05-07T10:58:28;23.50;95.60
22145;DHT22;11238;48.730;11.566;2023-05-07T11:01:05;23.40;94.60
22145;DHT22;11238;48.730;11.566;2023-05-07T11:04:12;23.30;94.40
22145;DHT22;11238;48.730;11.566;2023-05-07T11:06:39;23.30;94.30
22145;DHT22;11238;48.730;11.566;2023-05-07T11:09:09;23.40;93.40
22145;DHT22;11238;48.730;11.566;2023-05-07T11:11:53;23.50;91.30
22145;DHT22;11238;48.730;11.566;2023-05-07T11:17:11;23.60;91.80
22145;DHT22;11238;48.730;11.566;2023-05-07T11:19:50;23.50;91.70
22145;DHT22;11238;48.730;11.566;2023-05-07T11:22:36;23.30;91.70
22145;DHT22;11238;48.730;11.566;2023-05-07T11:25:22;23.20;92.70
22145;DHT22;11238;48.730;11.566;2023-05-07T11:28:05;23.20;92.10
22145;DHT22;11238;48.730;11.566;2023-05-07T11:30:32;23.20;91.80
22145;DHT22;11238;48.730;11.566;2023-05-07T11:32:58;23.30;90.60
22145;DHT22;11238;48.730;11.566;2023-05-07T11:35:25;23.30;90.90
22145;DHT22;11238;48.730;11.566;2023-05-07T11:37:59;23.40;91.60
22145;DHT22;11238;48.730;11.566;2023-05-07T11:40:25;23.50;90.50
22145;DHT22;11238;48.730;11.566;2023-05-07T11:42:51;23.70;90.10
22145;DHT22;11238;48.730;11.566;2023-05-07T11:45:23;23.60;89.20
22145;DHT22;11238;48.730;11.566;2023-05-07T11:47:51;23.70;86.90
22145;DHT22;11238;48.730;11.566;2023-05-07T11:50:16;23.80;88.20
22145;DHT22;11238;48.730;11.566;2023-05-07T11:52:50;24.00;89.20
22145;DHT22;11238;48.730;11.566;2023-05-07T11:55:18;24.20;90.30
22145;DHT22;11238;48.730;11.566;2023-05-07T11:57:44;24.30;88.50
22145;DHT22;11238;48.730;11.566;2023-05-07T12:00:11;24.20;86.80
22145;DHT22;11238;48.730;11.566;2023-05-07T12:02:40;24.00;86.30
22145;DHT22;11238;48.730;11.566;2023-05-07T12:05:07;24.20;87.00
22145;DHT22;11238;48.730;11.566;2023-05-07T12:07:35;24.60;84.30
22145;DHT22;11238;48.730;11.566;2023-05-07T12:10:06;24.70;82.70
22145;DHT22;11238;48.730;11.566;2023-05-07T12:12:41;24.80;82.90
22145;DHT22;11238;48.730;11.566;2023-05-07T12:15:10;24.70;82.10
22145;DHT22;11238;48.730;11.566;2023-05-07T12:17:36;24.70;82.40
22145;DHT22;11238;48.730;11.566;2023-05-07T12:20:02;24.90;83.70
22145;DHT22;11238;48.730;11.566;2023-05-07T12:22:28;24.40;79.30
22145;DHT22;11238;48.730;11.566;2023-05-07T12:24:58;24.40;83.00
22145;DHT22;11238;48.730;11.566;2023-05-07T12:27:25;24.60;81.70
22145;DHT22;11238;48.730;11.566;2023-05-07T12:29:51;24.60;81.90
22145;DHT22;11238;48.730;11.566;2023-05-07T12:32:21;24.50;82.30
22145;DHT22;11238;48.730;11.566;2023-05-07T12:34:50;24.60;80.60
22145;DHT22;11238;48.730;11.566;2023-05-07T12:37:16;24.50;81.20
22145;DHT22;11238;48.730;11.566;2023-05-07T12:39:49;24.60;80.30
22145;DHT22;11238;48.730;11.566;2023-05-07T12:42:16;24.80;82.90
22145;DHT22;11238;48.730;11.566;2023-05-07T12:44:45;24.90;80.50
22145;DHT22;11238;48.730;11.566;2023-05-07T12:47:11;25.20;81.50
22145;DHT22;11238;48.730;11.566;2023-05-07T12:49:38;25.30;79.40
22145;DHT22;11238;48.730;11.566;2023-05-07T12:52:05;25.30;78.50
22145;DHT22;11238;48.730;11.566;2023-05-07T12:54:34;25.20;76.50
22145;DHT22;11238;48.730;11.566;2023-05-07T12:57:08;25.10;78.20
22145;DHT22;11238;48.730;11.566;2023-05-07T12:59:41;25.10;79.90
22145;DHT22;11238;48.730;11.566;2023-05-07T13:02:08;25.40;80.50
22145;DHT22;11238;48.730;11.566;2023-05-07T13:04:35;24.90;78.00
22145;DHT22;11238;48.730;11.566;2023-05-07T13:07:01;25.10;77.10
22145;DHT22;11238;48.730;11.566;2023-05-07T13:09:28;25.20;76.00
22145;DHT22;11238;48.730;11.566;2023-05-07T13:11:57;25.40;77.00
22145;DHT22;11238;48.730;11.566;2023-05-07T13:14:27;25.50;78.00
22145;DHT22;11238;48.730;11.566;2023-05-07T13:16:52;25.50;77.40
22145;DHT22;11238;48.730;11.566;2023-05-07T13:19:18;25.80;78.60
22145;DHT22;11238;48.730;11.566;2023-05-07T13:21:44;25.90;76.30
22145;DHT22;11238;48.730;11.566;2023-05-07T13:24:09;25.60;76.10
22145;DHT22;11238;48.730;11.566;2023-05-07T13:26:35;25.90;78.40
22145;DHT22;11238;48.730;11.566;2023-05-07T13:29:01;25.70;74.70
22145;DHT22;11238;48.730;11.566;2023-05-07T13:31:27;25.60;74.10
22145;DHT22;11238;48.730;11.566;2023-05-07T13:33:53;25.70;75.80
22145;DHT22;11238;48.730;11.566;2023-05-07T13:36:19;25.80;74.60
22145;DHT22;11238;48.730;11.566;2023-05-07T13:38:45;25.70;74.50
22145;DHT22;11238;48.730;11.566;2023-05-07T13:41:12;25.60;73.20
22145;DHT22;11238;48.730;11.566;2023-05-07T13:43:38;25.60;73.50
22145;DHT22;11238;48.730;11.566;2023-05-07T13:46:04;25.70;74.40
22145;DHT22;11238;48.730;11.566;2023-05-07T13:48:29;25.70;74.00
22145;DHT22;11238;48.730;11.566;2023-05-07T13:50:55;25.70;72.30
22145;DHT22;11238;48.730;11.566;2023-05-07T13:53:21;25.70;75.10
22145;DHT22;11238;48.730;11.566;2023-05-07T13:55:47;25.70;72.60
22145;DHT22;11238;48.730;11.566;2023-05-07T13:58:13;25.70;71.70
22145;DHT22;11238;48.730;11.566;2023-05-07T14:00:39;25.70;71.40
22145;DHT22;11238;48.730;11.566;2023-05-07T14:03:05;25.90;70.40
22145;DHT22;11238;48.730;11.566;2023-05-07T14:05:31;25.80;70.60
22145;DHT22;11238;48.730;11.566;2023-05-07T14:07:57;25.70;71.30
22145;DHT22;11238;48.730;11.566;2023-05-07T14:10:24;25.70;71.00
22145;DHT22;11238;48.730;11.566;2023-05-07T14:12:50;25.60;70.20
22145;DHT22;11238;48.730;11.566;2023-05-07T14:15:37;25.50;70.60
22145;DHT22;11238;48.730;11.566;2023-05-07T14:18:03;25.30;69.90
22145;DHT22;11238;48.730;11.566;2023-05-07T14:20:29;25.30;72.50
22145;DHT22;11238;48.730;11.566;2023-05-07T14:22:56;25.20;70.30
22145;DHT22;11238;48.730;11.566;2023-05-07T14:25:22;25.20;69.80
22145;DHT22;11238;48.730;11.566;2023-05-07T14:27:50;25.20;71.50
22145;DHT22;11238;48.730;11.566;2023-05-07T14:30:16;25.10;71.00
22145;DHT22;11238;48.730;11.566;2023-05-07T14:32:42;25.10;70.90
22145;DHT22;11238;48.730;11.566;2023-05-07T14:35:08;24.90;70.60
22145;DHT22;11238;48.730;11.566;2023-05-07T14:37:34;24.70;72.60
22145;DHT22;11238;48.730;11.566;2023-05-07T14:40:00;24.70;72.10
22145;DHT22;11238;48.730;11.566;2023-05-07T14:42:26;24.50;73.50
22145;DHT22;11238;48.730;11.566;2023-05-07T14:44:52;24.40;74.40
22145;DHT22;11238;48.730;11.566;2023-05-07T14:47:18;24.30;75.30
22145;DHT22;11238;48.730;11.566;2023-05-07T14:49:45;24.20;76.00
22145;DHT22;11238;48.730;11.566;2023-05-07T14:52:10;24.30;77.70
22145;DHT22;11238;48.730;11.566;2023-05-07T14:54:39;24.30;76.40
22145;DHT22;11238;48.730;11.566;2023-05-07T14:57:06;24.10;71.60
22145;DHT22;11238;48.730;11.566;2023-05-07T14:59:32;24.20;73.90
22145;DHT22;11238;48.730;11.566;2023-05-07T15:01:58;24.20;73.60
22145;DHT22;11238;48.730;11.566;2023-05-07T15:04:25;24.10;74.20
22145;DHT22;11238;48.730;11.566;2023-05-07T15:06:51;24.10;74.60
22145;DHT22;11238;48.730;11.566;2023-05-07T15:09:17;24.10;72.70
22145;DHT22;11238;48.730;11.566;2023-05-07T15:11:43;24.10;74.00
22145;DHT22;11238;48.730;11.566;2023-05-07T15:14:09;24.10;73.50
22145;DHT22;11238;48.730;11.566;2023-05-07T15:16:35;23.80;74.40
22145;DHT22;11238;48.730;11.566;2023-05-07T15:19:00;23.80;75.40
22145;DHT22;11238;48.730;11.566;2023-05-07T15:21:26;23.80;76.70
22145;DHT22;11238;48.730;11.566;2023-05-07T15:23:52;23.70;75.80
22145;DHT22;11238;48.730;11.566;2023-05-07T15:26:18;23.70;75.40
22145;DHT22;11238;48.730;11.566;2023-05-07T15:28:43;23.60;75.90
22145;DHT22;11238;48.730;11.566;2023-05-07T15:31:09;23.60;77.00
22145;DHT22;11238;48.730;11.566;2023-05-07T15:33:35;23.60;75.30
22145;DHT22;11238;48.730;11.566;2023-05-07T15:36:01;23.60;74.30
22145;DHT22;11238;48.730;11.566;2023-05-07T15:38:28;23.60;76.70